sensor_id;sensor_type;location;lat;lon;timestamp;pressure;altitude;pressure_sealevel;temperature;humidity
44138;BME280;29800;55.942;37.314;2022-12-20T00:00:51;100538.66;;;-0.86;65.30
44138;BME280;29800;55.942;37.314;2022-12-20T00:03:17;100544.34;;;-0.89;65.24
44138;BME280;29800;55.942;37.314;2022-12-20T00:05:44;100548.59;;;-0.86;65.27
44138;BME280;29800;55.942;37.314;2022-12-20T00:08:11;100559.56;;;-0.80;65.20
44138;BME280;29800;55.942;37.314;2022-12-20T00:10:42;100565.75;;;-0.79;65.30
44138;BME280;29800;55.942;37.314;2022-12-20T00:13:09;100570.09;;;-0.86;65.30
44138;BME280;29800;55.942;37.314;2022-12-20T00:15:36;100548.28;;;-0.83;64.92
44138;BME280;29800;55.942;37.314;2022-12-20T00:18:03;100556.06;;;-0.98;65.09
44138;BME280;29800;55.942;37.314;2022-12-20T00:20:29;100554.75;;;-1.12;65.49
44138;BME280;29800;55.942;37.314;2022-12-20T00:22:56;100551.69;;;-1.17;65.48
44138;BME280;29800;55.942;37.314;2022-12-20T00:25:22;100550.47;;;-1.23;65.62
44138;BME280;29800;55.942;37.314;2022-12-20T00:27:48;100545.16;;;-1.33;65.81
44138;BME280;29800;55.942;37.314;2022-12-20T00:30:15;100537.31;;;-1.44;66.08
44138;BME280;29800;55.942;37.314;2022-12-20T00:32:43;100532.56;;;-1.50;65.98
44138;BME280;29800;55.942;37.314;2022-12-20T00:35:09;100536.16;;;-1.59;66.16
44138;BME280;29800;55.942;37.314;2022-12-20T00:37:35;100529.69;;;-1.67;66.37
44138;BME280;29800;55.942;37.314;2022-12-20T00:40:03;100504.06;;;-1.61;66.57
44138;BME280;29800;55.942;37.314;2022-12-20T00:42:30;100504.78;;;-1.59;66.34
44138;BME280;29800;55.942;37.314;2022-12-20T00:44:56;100503.63;;;-1.56;66.51
44138;BME280;29800;55.942;37.314;2022-12-20T00:47:22;100497.28;;;-1.55;66.45
44138;BME280;29800;55.942;37.314;2022-12-20T00:49:48;100503.56;;;-1.46;66.45
44138;BME280;29800;55.942;37.314;2022-12-20T00:52:14;100506.25;;;-1.46;65.93
44138;BME280;29800;55.942;37.314;2022-12-20T00:54:40;100507.00;;;-1.54;66.23
44138;BME280;29800;55.942;37.314;2022-12-20T00:57:06;100505.31;;;-1.55;66.07
44138;BME280;29800;55.942;37.314;2022-12-20T00:59:32;100499.72;;;-1.62;66.51
44138;BME280;29800;55.942;37.314;2022-12-20T01:01:59;100493.81;;;-1.65;66.34
44138;BME280;29800;55.942;37.314;2022-12-20T01:04:24;100495.94;;;-1.69;66.67
44138;BME280;29800;55.942;37.314;2022-12-20T01:06:51;100505.59;;;-1.76;66.56
44138;BME280;29800;55.942;37.314;2022-12-20T01:09:17;100496.47;;;-1.83;66.49
44138;BME280;29800;55.942;37.314;2022-12-20T01:11:43;100480.38;;;-1.83;66.83
44138;BME280;29800;55.942;37.314;2022-12-20T01:14:13;100490.41;;;-1.68;66.70
44138;BME280;29800;55.942;37.314;2022-12-20T01:16:42;100502.63;;;-1.55;66.39
44138;BME280;29800;55.942;37.314;2022-12-20T01:19:11;100495.66;;;-1.48;66.12
44138;BME280;29800;55.942;37.314;2022-12-20T01:21:39;100483.25;;;-1.49;65.95
44138;BME280;29800;55.942;37.314;2022-12-20T01:24:11;100488.59;;;-1.49;66.10
44138;BME280;29800;55.942;37.314;2022-12-20T01:26:37;100485.94;;;-1.49;65.78
44138;BME280;29800;55.942;37.314;2022-12-20T01:29:03;100485.59;;;-1.46;65.85
44138;BME280;29800;55.942;37.314;2022-12-20T01:31:30;100490.81;;;-1.44;65.71
44138;BME280;29800;55.942;37.314;2022-12-20T01:33:57;100483.63;;;-1.44;65.69
44138;BME280;29800;55.942;37.314;2022-12-20T01:36:29;100478.63;;;-1.39;65.35
44138;BME280;29800;55.942;37.314;2022-12-20T01:39:10;100478.63;;;-1.39;65.57
44138;BME280;29800;55.942;37.314;2022-12-20T01:41:37;100477.88;;;-1.49;65.29
44138;BME280;29800;55.942;37.314;2022-12-20T01:44:06;100485.50;;;-1.54;65.63
44138;BME280;29800;55.942;37.314;2022-12-20T01:46:52;100482.81;;;-1.54;65.94
44138;BME280;29800;55.942;37.314;2022-12-20T01:49:25;100482.16;;;-1.56;65.20
44138;BME280;29800;55.942;37.314;2022-12-20T01:52:03;100472.56;;;-1.59;65.39
44138;BME280;29800;55.942;37.314;2022-12-20T01:54:43;100462.50;;;-1.57;65.30
44138;BME280;29800;55.942;37.314;2022-12-20T01:57:17;100462.97;;;-1.61;65.33
44138;BME280;29800;55.942;37.314;2022-12-20T01:59:47;100457.38;;;-1.68;65.15
44138;BME280;29800;55.942;37.314;2022-12-20T02:02:15;100465.34;;;-1.76;64.64
44138;BME280;29800;55.942;37.314;2022-12-20T02:04:41;100453.06;;;-1.79;64.63
44138;BME280;29800;55.942;37.314;2022-12-20T02:07:12;100449.78;;;-1.73;64.48
44138;BME280;29800;55.942;37.314;2022-12-20T02:09:40;100447.31;;;-1.84;64.48
44138;BME280;29800;55.942;37.314;2022-12-20T02:12:39;100452.91;;;-1.77;64.24
44138;BME280;29800;55.942;37.314;2022-12-20T02:21:09;100441.63;;;-1.81;64.08
44138;BME280;29800;55.942;37.314;2022-12-20T02:29:34;100416.19;;;-1.77;63.72
44138;BME280;29800;55.942;37.314;2022-12-20T02:34:32;100415.16;;;-1.94;64.11
44138;BME280;29800;55.942;37.314;2022-12-20T02:37:00;100410.91;;;-1.87;63.80
44138;BME280;29800;55.942;37.314;2022-12-20T02:39:28;100401.00;;;-1.86;63.78
44138;BME280;29800;55.942;37.314;2022-12-20T02:42:14;100397.56;;;-1.78;63.37
44138;BME280;29800;55.942;37.314;2022-12-20T02:44:53;100393.94;;;-1.87;63.27
44138;BME280;29800;55.942;37.314;2022-12-20T02:50:20;100392.50;;;-1.99;62.99
44138;BME280;29800;55.942;37.314;2022-12-20T02:52:47;100393.94;;;-2.05;62.84
44138;BME280;29800;55.942;37.314;2022-12-20T02:55:14;100385.78;;;-2.13;62.64
44138;BME280;29800;55.942;37.314;2022-12-20T02:57:49;100386.28;;;-2.18;62.88
44138;BME280;29800;55.942;37.314;2022-12-20T03:00:19;100380.56;;;-2.33;63.16
44138;BME280;29800;55.942;37.314;2022-12-20T03:02:47;100368.59;;;-2.38;63.00
44138;BME280;29800;55.942;37.314;2022-12-20T03:05:35;100378.25;;;-2.46;62.88
44138;BME280;29800;55.942;37.314;2022-12-20T03:08:03;100373.25;;;-2.59;63.37
44138;BME280;29800;55.942;37.314;2022-12-20T03:10:29;100373.09;;;-2.57;63.14
44138;BME280;29800;55.942;37.314;2022-12-20T03:12:55;100364.53;;;-2.61;63.05
44138;BME280;29800;55.942;37.314;2022-12-20T03:15:22;100362.56;;;-2.68;62.71
44138;BME280;29800;55.942;37.314;2022-12-20T03:17:52;100358.63;;;-2.74;62.53
44138;BME280;29800;55.942;37.314;2022-12-20T03:20:18;100357.25;;;-2.78;62.23
44138;BME280;29800;55.942;37.314;2022-12-20T03:22:44;100349.06;;;-2.77;61.93
44138;BME280;29800;55.942;37.314;2022-12-20T03:25:10;100340.59;;;-2.72;61.93
44138;BME280;29800;55.942;37.314;2022-12-20T03:27:36;100333.84;;;-2.76;61.08
44138;BME280;29800;55.942;37.314;2022-12-20T03:30:04;100342.94;;;-2.87;61.41
44138;BME280;29800;55.942;37.314;2022-12-20T03:32:33;100346.09;;;-3.01;61.01
44138;BME280;29800;55.942;37.314;2022-12-20T03:34:59;100337.91;;;-3.00;61.38
44138;BME280;29800;55.942;37.314;2022-12-20T03:37:31;100327.88;;;-2.98;60.92
44138;BME280;29800;55.942;37.314;2022-12-20T03:39:59;100328.28;;;-2.92;60.68
44138;BME280;29800;55.942;37.314;2022-12-20T03:42:25;100319.00;;;-2.98;60.54
44138;BME280;29800;55.942;37.314;2022-12-20T03:44:52;100324.94;;;-3.04;60.60
44138;BME280;29800;55.942;37.314;2022-12-20T03:47:18;100315.66;;;-3.10;60.23
44138;BME280;29800;55.942;37.314;2022-12-20T03:49:45;100318.50;;;-3.11;60.06
44138;BME280;29800;55.942;37.314;2022-12-20T03:52:12;100307.63;;;-3.10;60.24
44138;BME280;29800;55.942;37.314;2022-12-20T03:54:40;100307.50;;;-3.18;59.73
44138;BME280;29800;55.942;37.314;2022-12-20T03:57:13;100293.47;;;-3.30;59.39
44138;BME280;29800;55.942;37.314;2022-12-20T03:59:39;100293.66;;;-3.51;59.64
44138;BME280;29800;55.942;37.314;2022-12-20T04:02:08;100282.03;;;-3.60;59.72
44138;BME280;29800;55.942;37.314;2022-12-20T04:04:34;100272.19;;;-3.79;59.23
44138;BME280;29800;55.942;37.314;2022-12-20T04:07:00;100268.28;;;-3.94;59.54
44138;BME280;29800;55.942;37.314;2022-12-20T04:09:26;100268.31;;;-4.04;59.68
44138;BME280;29800;55.942;37.314;2022-12-20T04:12:00;100265.50;;;-4.12;59.73
44138;BME280;29800;55.942;37.314;2022-12-20T04:14:27;100271.41;;;-4.18;59.77
44138;BME280;29800;55.942;37.314;2022-12-20T04:16:53;100263.09;;;-4.35;60.19
44138;BME280;29800;55.942;37.314;2022-12-20T04:19:21;100259.88;;;-4.38;60.56
44138;BME280;29800;55.942;37.314;2022-12-20T04:21:48;100264.13;;;-4.46;60.26
44138;BME280;29800;55.942;37.314;2022-12-20T04:24:16;100266.94;;;-4.47;60.97
44138;BME280;29800;55.942;37.314;2022-12-20T04:26:54;100278.72;;;-4.59;61.21
44138;BME280;29800;55.942;37.314;2022-12-20T04:29:20;100276.44;;;-4.74;61.09
44138;BME280;29800;55.942;37.314;2022-12-20T04:31:47;100273.59;;;-4.82;61.28
44138;BME280;29800;55.942;37.314;2022-12-20T04:34:14;100272.06;;;-4.85;61.69
44138;BME280;29800;55.942;37.314;2022-12-20T04:36:40;100268.28;;;-4.92;62.04
44138;BME280;29800;55.942;37.314;2022-12-20T04:39:13;100264.88;;;-4.94;62.49
44138;BME280;29800;55.942;37.314;2022-12-20T04:41:59;100266.16;;;-4.98;62.44
44138;BME280;29800;55.942;37.314;2022-12-20T04:44:25;100265.41;;;-5.00;62.59
44138;BME280;29800;55.942;37.314;2022-12-20T04:46:51;100260.66;;;-5.06;62.53
44138;BME280;29800;55.942;37.314;2022-12-20T04:49:17;100252.34;;;-5.13;62.15
44138;BME280;29800;55.942;37.314;2022-12-20T04:51:44;100255.53;;;-5.19;62.85
44138;BME280;29800;55.942;37.314;2022-12-20T04:54:11;100252.97;;;-5.30;63.05
44138;BME280;29800;55.942;37.314;2022-12-20T04:56:43;100255.81;;;-5.22;62.57
44138;BME280;29800;55.942;37.314;2022-12-20T04:59:15;100249.34;;;-5.29;62.51
44138;BME280;29800;55.942;37.314;2022-12-20T05:01:44;100249.03;;;-5.36;62.83
44138;BME280;29800;55.942;37.314;2022-12-20T05:04:15;100247.28;;;-5.47;62.46
44138;BME280;29800;55.942;37.314;2022-12-20T05:06:41;100249.00;;;-5.46;62.88
44138;BME280;29800;55.942;37.314;2022-12-20T05:09:07;100242.22;;;-5.50;62.53
44138;BME280;29800;55.942;37.314;2022-12-20T05:11:33;100248.09;;;-5.56;62.34
44138;BME280;29800;55.942;37.314;2022-12-20T05:14:02;100247.38;;;-5.58;62.87
44138;BME280;29800;55.942;37.314;2022-12-20T05:16:28;100238.41;;;-5.57;62.81
44138;BME280;29800;55.942;37.314;2022-12-20T05:18:54;100231.94;;;-5.55;62.72
44138;BME280;29800;55.942;37.314;2022-12-20T05:21:20;100229.16;;;-5.53;62.59
44138;BME280;29800;55.942;37.314;2022-12-20T05:24:08;100217.66;;;-5.54;62.43
44138;BME280;29800;55.942;37.314;2022-12-20T05:27:02;100224.81;;;-5.54;62.45
44138;BME280;29800;55.942;37.314;2022-12-20T05:29:29;100210.59;;;-5.55;62.58
44138;BME280;29800;55.942;37.314;2022-12-20T05:31:56;100215.63;;;-5.61;62.85
44138;BME280;29800;55.942;37.314;2022-12-20T05:34:22;100212.28;;;-5.63;63.13
44138;BME280;29800;55.942;37.314;2022-12-20T05:36:51;100209.34;;;-5.60;62.89
44138;BME280;29800;55.942;37.314;2022-12-20T05:39:19;100199.81;;;-5.53;62.75
44138;BME280;29800;55.942;37.314;2022-12-20T05:41:47;100201.78;;;-5.55;62.37
44138;BME280;29800;55.942;37.314;2022-12-20T05:44:13;100198.84;;;-5.52;62.37
44138;BME280;29800;55.942;37.314;2022-12-20T05:46:44;100198.84;;;-5.52;62.56
44138;BME280;29800;55.942;37.314;2022-12-20T05:49:16;100197.44;;;-5.46;62.41
44138;BME280;29800;55.942;37.314;2022-12-20T05:51:42;100199.00;;;-5.44;62.38
44138;BME280;29800;55.942;37.314;2022-12-20T05:54:20;100190.88;;;-5.42;62.04
44138;BME280;29800;55.942;37.314;2022-12-20T05:56:55;100187.19;;;-5.41;62.24
44138;BME280;29800;55.942;37.314;2022-12-20T05:59:28;100179.06;;;-5.40;61.36
44138;BME280;29800;55.942;37.314;2022-12-20T06:01:54;100178.75;;;-5.46;62.11
44138;BME280;29800;55.942;37.314;2022-12-20T06:04:22;100184.38;;;-5.49;61.78
44138;BME280;29800;55.942;37.314;2022-12-20T06:06:49;100182.13;;;-5.54;61.78
44138;BME280;29800;55.942;37.314;2022-12-20T06:09:18;100189.41;;;-5.56;62.01
44138;BME280;29800;55.942;37.314;2022-12-20T06:11:53;100184.22;;;-5.48;62.00
44138;BME280;29800;55.942;37.314;2022-12-20T06:14:20;100178.47;;;-5.53;61.79
44138;BME280;29800;55.942;37.314;2022-12-20T06:16:47;100176.78;;;-5.54;61.73
44138;BME280;29800;55.942;37.314;2022-12-20T06:19:16;100171.59;;;-5.56;61.79
44138;BME280;29800;55.942;37.314;2022-12-20T06:21:42;100177.88;;;-5.57;61.74
44138;BME280;29800;55.942;37.314;2022-12-20T06:24:11;100167.22;;;-5.57;61.67
44138;BME280;29800;55.942;37.314;2022-12-20T06:26:41;100160.88;;;-5.65;61.87
44138;BME280;29800;55.942;37.314;2022-12-20T06:29:08;100158.09;;;-5.64;61.78
44138;BME280;29800;55.942;37.314;2022-12-20T06:31:50;100148.13;;;-5.62;61.78
44138;BME280;29800;55.942;37.314;2022-12-20T06:34:16;100149.94;;;-5.62;61.52
44138;BME280;29800;55.942;37.314;2022-12-20T06:36:43;100150.09;;;-5.64;61.24
44138;BME280;29800;55.942;37.314;2022-12-20T06:39:15;100143.44;;;-5.69;61.54
44138;BME280;29800;55.942;37.314;2022-12-20T06:41:52;100138.13;;;-5.69;61.90
44138;BME280;29800;55.942;37.314;2022-12-20T06:44:18;100137.84;;;-5.66;61.74
44138;BME280;29800;55.942;37.314;2022-12-20T06:46:45;100125.94;;;-5.62;62.00
44138;BME280;29800;55.942;37.314;2022-12-20T06:49:11;100121.72;;;-5.55;61.80
44138;BME280;29800;55.942;37.314;2022-12-20T06:51:37;100113.19;;;-5.49;61.62
44138;BME280;29800;55.942;37.314;2022-12-20T06:54:03;100117.94;;;-5.43;61.06
44138;BME280;29800;55.942;37.314;2022-12-20T06:56:32;100109.13;;;-5.33;60.73
44138;BME280;29800;55.942;37.314;2022-12-20T06:58:58;100100.44;;;-5.36;60.85
44138;BME280;29800;55.942;37.314;2022-12-20T07:01:25;100103.25;;;-5.27;60.86
44138;BME280;29800;55.942;37.314;2022-12-20T07:03:51;100094.53;;;-5.29;60.00
44138;BME280;29800;55.942;37.314;2022-12-20T07:06:17;100095.94;;;-5.25;59.86
44138;BME280;29800;55.942;37.314;2022-12-20T07:08:43;100086.41;;;-5.18;59.76
44138;BME280;29800;55.942;37.314;2022-12-20T07:11:09;100087.66;;;-5.12;59.59
44138;BME280;29800;55.942;37.314;2022-12-20T07:13:35;100080.91;;;-5.07;59.26
44138;BME280;29800;55.942;37.314;2022-12-20T07:16:02;100064.19;;;-5.09;59.29
44138;BME280;29800;55.942;37.314;2022-12-20T07:18:29;100065.59;;;-5.05;59.44
44138;BME280;29800;55.942;37.314;2022-12-20T07:20:59;100057.72;;;-4.96;59.25
44138;BME280;29800;55.942;37.314;2022-12-20T07:23:25;100048.72;;;-4.95;59.19
44138;BME280;29800;55.942;37.314;2022-12-20T07:25:53;100047.31;;;-4.90;58.60
44138;BME280;29800;55.942;37.314;2022-12-20T07:28:20;100043.50;;;-4.87;58.92
44138;BME280;29800;55.942;37.314;2022-12-20T07:30:46;100027.59;;;-4.79;58.57
44138;BME280;29800;55.942;37.314;2022-12-20T07:33:12;100030.13;;;-4.68;58.33
44138;BME280;29800;55.942;37.314;2022-12-20T07:35:38;100018.84;;;-4.62;57.53
44138;BME280;29800;55.942;37.314;2022-12-20T07:38:05;100010.97;;;-4.53;57.60
44138;BME280;29800;55.942;37.314;2022-12-20T07:40:31;100007.84;;;-4.49;57.86
44138;BME280;29800;55.942;37.314;2022-12-20T07:42:57;100009.19;;;-4.35;57.61
44138;BME280;29800;55.942;37.314;2022-12-20T07:45:23;99996.94;;;-4.28;57.18
44138;BME280;29800;55.942;37.314;2022-12-20T07:47:49;99997.34;;;-4.22;56.90
44138;BME280;29800;55.942;37.314;2022-12-20T07:50:15;99981.78;;;-4.09;57.36
44138;BME280;29800;55.942;37.314;2022-12-20T07:52:43;99973.94;;;-3.93;56.63
44138;BME280;29800;55.942;37.314;2022-12-20T07:55:12;99976.00;;;-3.86;56.01
44138;BME280;29800;55.942;37.314;2022-12-20T07:57:52;99962.44;;;-3.75;56.74
44138;BME280;29800;55.942;37.314;2022-12-20T08:00:20;99951.16;;;-3.79;55.90
44138;BME280;29800;55.942;37.314;2022-12-20T08:03:01;99944.91;;;-3.70;55.80
44138;BME280;29800;55.942;37.314;2022-12-20T08:05:29;99956.13;;;-3.66;55.42
44138;BME280;29800;55.942;37.314;2022-12-20T08:07:57;99947.28;;;-3.48;55.38
44138;BME280;29800;55.942;37.314;2022-12-20T08:10:24;99946.34;;;-3.21;54.78
44138;BME280;29800;55.942;37.314;2022-12-20T08:12:50;99937.66;;;-2.89;54.15
44138;BME280;29800;55.942;37.314;2022-12-20T08:15:17;99927.81;;;-2.54;53.11
44138;BME280;29800;55.942;37.314;2022-12-20T08:17:44;99935.00;;;-2.12;52.58
44138;BME280;29800;55.942;37.314;2022-12-20T08:20:10;99924.84;;;-1.83;51.70
44138;BME280;29800;55.942;37.314;2022-12-20T08:22:36;99928.22;;;-1.57;50.86
44138;BME280;29800;55.942;37.314;2022-12-20T08:25:02;99923.84;;;-1.33;50.54
44138;BME280;29800;55.942;37.314;2022-12-20T08:27:29;99920.31;;;-1.09;49.81
44138;BME280;29800;55.942;37.314;2022-12-20T08:29:55;99918.28;;;-0.90;49.43
44138;BME280;29800;55.942;37.314;2022-12-20T08:32:21;99911.47;;;-0.62;48.85
44138;BME280;29800;55.942;37.314;2022-12-20T08:34:47;99913.59;;;-0.41;47.93
44138;BME280;29800;55.942;37.314;2022-12-20T08:37:15;99914.69;;;-0.27;47.80
44138;BME280;29800;55.942;37.314;2022-12-20T08:39:42;99917.88;;;-0.23;46.81
44138;BME280;29800;55.942;37.314;2022-12-20T08:42:08;99906.06;;;-0.14;46.88
44138;BME280;29800;55.942;37.314;2022-12-20T08:44:34;99896.75;;;-0.03;46.69
44138;BME280;29800;55.942;37.314;2022-12-20T08:47:00;99906.22;;;0.16;45.61
44138;BME280;29800;55.942;37.314;2022-12-20T08:49:26;99905.75;;;0.35;45.92
44138;BME280;29800;55.942;37.314;2022-12-20T08:51:52;99895.69;;;0.52;45.52
44138;BME280;29800;55.942;37.314;2022-12-20T08:54:19;99888.44;;;0.53;44.94
44138;BME280;29800;55.942;37.314;2022-12-20T08:56:45;99867.38;;;0.57;45.27
44138;BME280;29800;55.942;37.314;2022-12-20T08:59:11;99870.00;;;0.65;44.46
44138;BME280;29800;55.942;37.314;2022-12-20T09:01:37;99859.28;;;0.57;44.32
44138;BME280;29800;55.942;37.314;2022-12-20T09:04:03;99855.84;;;0.48;44.04
44138;BME280;29800;55.942;37.314;2022-12-20T09:06:30;99863.06;;;0.47;44.85
44138;BME280;29800;55.942;37.314;2022-12-20T09:08:58;99863.19;;;0.31;44.08
44138;BME280;29800;55.942;37.314;2022-12-20T09:11:25;99854.19;;;0.01;44.71
44138;BME280;29800;55.942;37.314;2022-12-20T09:13:54;99840.84;;;-0.16;45.20
44138;BME280;29800;55.942;37.314;2022-12-20T09:16:24;99836.34;;;-0.24;45.11
44138;BME280;29800;55.942;37.314;2022-12-20T09:18:52;99832.22;;;-0.43;44.56
44138;BME280;29800;55.942;37.314;2022-12-20T09:21:19;99826.47;;;-0.71;45.33
44138;BME280;29800;55.942;37.314;2022-12-20T09:23:45;99825.09;;;-0.98;45.76
44138;BME280;29800;55.942;37.314;2022-12-20T09:26:13;99819.25;;;-1.18;45.96
44138;BME280;29800;55.942;37.314;2022-12-20T09:28:40;99827.69;;;-1.38;46.46
44138;BME280;29800;55.942;37.314;2022-12-20T09:31:09;99812.78;;;-1.57;46.59
44138;BME280;29800;55.942;37.314;2022-12-20T09:33:36;99812.31;;;-1.69;47.09
44138;BME280;29800;55.942;37.314;2022-12-20T09:36:03;99808.28;;;-1.73;47.00
44138;BME280;29800;55.942;37.314;2022-12-20T09:38:30;99799.91;;;-1.94;47.26
44138;BME280;29800;55.942;37.314;2022-12-20T09:41:00;99796.22;;;-2.01;47.48
44138;BME280;29800;55.942;37.314;2022-12-20T09:43:27;99795.84;;;-2.07;47.57
44138;BME280;29800;55.942;37.314;2022-12-20T09:45:56;99792.50;;;-2.17;48.19
44138;BME280;29800;55.942;37.314;2022-12-20T09:48:36;99797.88;;;-2.17;48.20
44138;BME280;29800;55.942;37.314;2022-12-20T09:54:13;99782.81;;;-2.10;48.76
44138;BME280;29800;55.942;37.314;2022-12-20T09:56:45;99782.09;;;-2.20;48.56
44138;BME280;29800;55.942;37.314;2022-12-20T09:59:14;99772.06;;;-2.18;48.44
44138;BME280;29800;55.942;37.314;2022-12-20T10:01:44;99777.59;;;-2.19;48.61
44138;BME280;29800;55.942;37.314;2022-12-20T10:04:27;99764.03;;;-2.18;49.03
44138;BME280;29800;55.942;37.314;2022-12-20T10:21:24;99736.06;;;-2.91;50.19
44138;BME280;29800;55.942;37.314;2022-12-20T10:24:02;99734.00;;;-3.05;50.53
44138;BME280;29800;55.942;37.314;2022-12-20T10:26:29;99732.69;;;-3.01;50.06
44138;BME280;29800;55.942;37.314;2022-12-20T10:28:57;99730.41;;;-2.88;50.72
44138;BME280;29800;55.942;37.314;2022-12-20T10:31:23;99719.88;;;-2.73;50.24
44138;BME280;29800;55.942;37.314;2022-12-20T10:33:50;99727.75;;;-2.63;50.16
44138;BME280;29800;55.942;37.314;2022-12-20T10:36:31;99717.41;;;-2.50;50.41
44138;BME280;29800;55.942;37.314;2022-12-20T10:39:05;99717.06;;;-2.30;50.09
44138;BME280;29800;55.942;37.314;2022-12-20T10:44:17;99701.97;;;-2.07;49.60
44138;BME280;29800;55.942;37.314;2022-12-20T10:46:53;99701.47;;;-2.02;49.93
44138;BME280;29800;55.942;37.314;2022-12-20T10:49:37;99698.78;;;-2.02;50.02
44138;BME280;29800;55.942;37.314;2022-12-20T10:57:12;99679.03;;;-2.50;50.05
44138;BME280;29800;55.942;37.314;2022-12-20T10:59:44;99689.75;;;-2.67;50.55
44138;BME280;29800;55.942;37.314;2022-12-20T11:07:35;99695.03;;;-3.08;51.63
44138;BME280;29800;55.942;37.314;2022-12-20T11:10:17;99690.84;;;-3.02;51.22
44138;BME280;29800;55.942;37.314;2022-12-20T11:12:59;99682.94;;;-3.12;51.79
44138;BME280;29800;55.942;37.314;2022-12-20T11:15:28;99685.75;;;-3.22;51.61
44138;BME280;29800;55.942;37.314;2022-12-20T11:34:45;99657.25;;;-2.88;51.66
44138;BME280;29800;55.942;37.314;2022-12-20T11:37:19;99656.38;;;-2.89;51.39
44138;BME280;29800;55.942;37.314;2022-12-20T11:45:23;99664.53;;;-3.07;51.63
44138;BME280;29800;55.942;37.314;2022-12-20T11:48:02;99661.88;;;-3.07;51.68
44138;BME280;29800;55.942;37.314;2022-12-20T11:53:31;99669.03;;;-3.24;52.42
44138;BME280;29800;55.942;37.314;2022-12-20T11:56:03;99664.28;;;-3.38;52.21
44138;BME280;29800;55.942;37.314;2022-12-20T11:58:40;99668.13;;;-3.41;52.34
44138;BME280;29800;55.942;37.314;2022-12-20T12:01:13;99667.44;;;-3.43;52.66
44138;BME280;29800;55.942;37.314;2022-12-20T12:04:00;99661.72;;;-3.48;52.59
44138;BME280;29800;55.942;37.314;2022-12-20T12:06:34;99655.84;;;-3.60;52.47
44138;BME280;29800;55.942;37.314;2022-12-20T12:09:32;99658.88;;;-3.55;52.72
44138;BME280;29800;55.942;37.314;2022-12-20T12:12:28;99660.56;;;-3.54;52.71
44138;BME280;29800;55.942;37.314;2022-12-20T12:23:31;99661.75;;;-3.82;53.26
44138;BME280;29800;55.942;37.314;2022-12-20T12:26:09;99661.53;;;-3.89;53.50
44138;BME280;29800;55.942;37.314;2022-12-20T12:28:37;99657.06;;;-3.89;53.09
44138;BME280;29800;55.942;37.314;2022-12-20T12:31:07;99665.13;;;-3.80;53.43
44138;BME280;29800;55.942;37.314;2022-12-20T12:39:43;99655.28;;;-3.72;53.39
44138;BME280;29800;55.942;37.314;2022-12-20T12:45:27;99641.78;;;-3.62;52.96
44138;BME280;29800;55.942;37.314;2022-12-20T12:50:48;99648.41;;;-3.74;53.26
44138;BME280;29800;55.942;37.314;2022-12-20T12:53:18;99643.53;;;-3.79;52.87
44138;BME280;29800;55.942;37.314;2022-12-20T12:55:49;99652.63;;;-3.72;53.37
44138;BME280;29800;55.942;37.314;2022-12-20T13:00:58;99645.94;;;-3.67;53.48
44138;BME280;29800;55.942;37.314;2022-12-20T13:11:33;99644.38;;;-3.78;53.60
44138;BME280;29800;55.942;37.314;2022-12-20T13:19:35;99641.09;;;-3.72;53.06
44138;BME280;29800;55.942;37.314;2022-12-20T13:24:49;99638.75;;;-3.67;53.81
44138;BME280;29800;55.942;37.314;2022-12-20T13:38:03;99635.88;;;-4.08;53.98
44138;BME280;29800;55.942;37.314;2022-12-20T13:40:38;99637.22;;;-4.04;54.56
44138;BME280;29800;55.942;37.314;2022-12-20T13:43:32;99638.44;;;-3.98;54.60
44138;BME280;29800;55.942;37.314;2022-12-20T13:46:12;99631.81;;;-3.86;54.31
44138;BME280;29800;55.942;37.314;2022-12-20T13:51:15;99643.22;;;-3.76;53.66
44138;BME280;29800;55.942;37.314;2022-12-20T13:56:30;99637.41;;;-3.71;53.63
44138;BME280;29800;55.942;37.314;2022-12-20T13:59:05;99630.91;;;-3.68;53.25
44138;BME280;29800;55.942;37.314;2022-12-20T14:01:32;99630.31;;;-3.89;54.12
44138;BME280;29800;55.942;37.314;2022-12-20T14:04:03;99621.59;;;-3.91;54.06
44138;BME280;29800;55.942;37.314;2022-12-20T14:06:32;99620.09;;;-3.93;54.19
44138;BME280;29800;55.942;37.314;2022-12-20T14:08:59;99619.94;;;-3.92;54.36
44138;BME280;29800;55.942;37.314;2022-12-20T14:11:25;99623.28;;;-3.90;54.03
44138;BME280;29800;55.942;37.314;2022-12-20T14:13:59;99621.47;;;-3.81;54.01
44138;BME280;29800;55.942;37.314;2022-12-20T14:16:27;99623.97;;;-3.79;54.01
44138;BME280;29800;55.942;37.314;2022-12-20T14:19:10;99618.94;;;-3.82;53.92
44138;BME280;29800;55.942;37.314;2022-12-20T14:21:43;99611.97;;;-3.75;53.68
44138;BME280;29800;55.942;37.314;2022-12-20T14:24:18;99621.69;;;-3.66;53.51
44138;BME280;29800;55.942;37.314;2022-12-20T14:26:46;99619.00;;;-3.66;53.48
44138;BME280;29800;55.942;37.314;2022-12-20T14:29:19;99612.34;;;-3.62;53.73
44138;BME280;29800;55.942;37.314;2022-12-20T14:31:49;99617.38;;;-3.59;53.00
44138;BME280;29800;55.942;37.314;2022-12-20T14:34:22;99616.56;;;-3.51;52.96
44138;BME280;29800;55.942;37.314;2022-12-20T14:36:49;99624.75;;;-3.53;53.06
44138;BME280;29800;55.942;37.314;2022-12-20T14:39:30;99622.63;;;-3.41;52.73
44138;BME280;29800;55.942;37.314;2022-12-20T14:42:01;99623.47;;;-3.40;53.01
44138;BME280;29800;55.942;37.314;2022-12-20T14:44:29;99617.13;;;-3.39;52.16
44138;BME280;29800;55.942;37.314;2022-12-20T14:46:57;99617.47;;;-3.34;52.61
44138;BME280;29800;55.942;37.314;2022-12-20T14:49:32;99613.59;;;-3.32;52.64
44138;BME280;29800;55.942;37.314;2022-12-20T14:52:13;99617.81;;;-3.29;52.41
44138;BME280;29800;55.942;37.314;2022-12-20T14:54:53;99625.81;;;-3.37;52.56
44138;BME280;29800;55.942;37.314;2022-12-20T14:57:26;99621.13;;;-3.35;52.55
44138;BME280;29800;55.942;37.314;2022-12-20T15:08:12;99626.22;;;-3.16;52.51
44138;BME280;29800;55.942;37.314;2022-12-20T15:13:25;99629.13;;;-3.43;51.71
44138;BME280;29800;55.942;37.314;2022-12-20T15:15:52;99627.25;;;-3.51;52.21
44138;BME280;29800;55.942;37.314;2022-12-20T15:18:19;99630.44;;;-3.56;51.81